createdAt,value
2019-02-08T00:01:31.818Z,96844.09
2019-02-08T00:04:19.760Z,96847.47
2019-02-08T00:06:45.696Z,96842.52
2019-02-08T00:09:11.860Z,96872.28
2019-02-08T00:11:37.812Z,96862.97
2019-02-08T00:14:04.103Z,96830.39
2019-02-08T00:16:30.064Z,96876.33
2019-02-08T00:18:56.056Z,96889.09
2019-02-08T00:21:22.122Z,96868.11
2019-02-08T00:23:48.410Z,96888.72
2019-02-08T00:26:14.354Z,96619.95
2019-02-08T00:28:40.529Z,96603.30
2019-02-08T00:31:06.643Z,96912.23
2019-02-08T00:33:32.625Z,96900.50
2019-02-08T00:35:58.886Z,96899.89
2019-02-08T00:38:24.853Z,96915.47
2019-02-08T00:40:50.824Z,96899.87
2019-02-08T00:43:16.775Z,96923.77
2019-02-08T00:45:42.867Z,96919.33
2019-02-08T00:48:08.994Z,96914.92
2019-02-08T00:50:34.955Z,96896.25
2019-02-08T00:53:00.859Z,96617.47
2019-02-08T00:55:26.900Z,96887.22
2019-02-08T00:57:55.126Z,96664.29
2019-02-08T01:00:21.443Z,96900.47
2019-02-08T01:02:48.749Z,96590.62
2019-02-08T01:05:17.818Z,96634.52
2019-02-08T01:07:43.755Z,96610.62
2019-02-08T01:10:18.168Z,96913.20
2019-02-08T01:12:44.149Z,96912.69
2019-02-08T01:15:12.058Z,96906.48
2019-02-08T01:17:38.219Z,96898.45
2019-02-08T01:20:16.521Z,96670.59
2019-02-08T01:22:42.580Z,96911.97
2019-02-08T01:25:11.643Z,96909.88
2019-02-08T01:27:37.702Z,96675.77
2019-02-08T01:30:07.447Z,96909.38
2019-02-08T01:32:33.323Z,96600.17
2019-02-08T01:34:59.310Z,96913.94
2019-02-08T01:37:25.194Z,96927.65
2019-02-08T01:39:51.182Z,96900.57
2019-02-08T01:42:17.093Z,96912.23
2019-02-08T01:44:43.187Z,96787.77
2019-02-08T01:47:09.083Z,96922.45
2019-02-08T01:49:34.999Z,96903.95
2019-02-08T01:52:00.965Z,96896.23
2019-02-08T01:54:26.872Z,96914.06
2019-02-08T01:56:52.788Z,96926.96
2019-02-08T01:59:18.867Z,96927.41
2019-02-08T02:01:44.947Z,96911.30
2019-02-08T02:04:11.016Z,96913.71
2019-02-08T02:06:36.991Z,96921.64
2019-02-08T02:09:05.609Z,96672.37
2019-02-08T02:11:31.551Z,96933.09
2019-02-08T02:13:57.490Z,96691.41
2019-02-08T02:16:23.400Z,96923.52
2019-02-08T02:18:50.227Z,96946.10
2019-02-08T02:21:16.242Z,96922.73
2019-02-08T02:23:42.129Z,96922.73
2019-02-08T02:26:08.302Z,96651.04
2019-02-08T02:28:34.161Z,96947.82
2019-02-08T02:31:00.249Z,96934.15
2019-02-08T02:33:26.123Z,96947.63
2019-02-08T02:35:52.091Z,96946.36
2019-02-08T02:38:18.154Z,96960.67
2019-02-08T02:40:44.061Z,96949.20
2019-02-08T02:43:10.205Z,96964.17
2019-02-08T02:45:37.845Z,96959.22
2019-02-08T02:48:05.012Z,96961.76
2019-02-08T02:50:31.024Z,96962.45
2019-02-08T02:52:56.975Z,96981.39
2019-02-08T02:55:27.746Z,96966.05
2019-02-08T02:57:53.777Z,96974.87
2019-02-08T03:00:32.246Z,96747.42
2019-02-08T03:02:59.187Z,96971.73
2019-02-08T03:05:25.479Z,96734.03
2019-02-08T03:07:51.714Z,96975.35
2019-02-08T03:10:21.669Z,96988.67
2019-02-08T03:12:47.641Z,96967.47
2019-02-08T03:15:19.278Z,96977.13
2019-02-08T03:17:45.352Z,96955.56
2019-02-08T03:20:14.639Z,96960.25
2019-02-08T03:22:40.652Z,96974.27
2019-02-08T03:25:09.867Z,96975.02
2019-02-08T03:27:35.907Z,96984.34
2019-02-08T03:30:08.679Z,96822.72
2019-02-08T03:32:34.755Z,96958.83
2019-02-08T03:35:00.939Z,96965.84
2019-02-08T03:37:26.831Z,96608.59
2019-02-08T03:39:52.848Z,96962.79
2019-02-08T03:42:18.733Z,96982.59
2019-02-08T03:44:44.628Z,96967.91
2019-02-08T03:47:10.640Z,96971.05
2019-02-08T03:49:36.590Z,96970.51
2019-02-08T03:52:02.592Z,96828.77
2019-02-08T03:54:28.514Z,96971.02
2019-02-08T03:56:54.380Z,96645.70
2019-02-08T03:59:20.363Z,96988.84
2019-02-08T04:01:46.316Z,96975.56
2019-02-08T04:04:13.706Z,96976.77
2019-02-08T04:06:39.707Z,96968.98
2019-02-08T04:09:06.286Z,96957.70
2019-02-08T04:11:32.132Z,96957.70
2019-02-08T04:13:58.078Z,96957.84
2019-02-08T04:16:23.958Z,96958.00
2019-02-08T04:18:49.846Z,96971.16
2019-02-08T04:21:15.737Z,96972.70
2019-02-08T04:23:41.789Z,96989.70
2019-02-08T04:26:07.780Z,96975.83
2019-02-08T04:28:33.699Z,96989.56
2019-02-08T04:30:59.739Z,96963.42
2019-02-08T04:33:25.678Z,96976.05
2019-02-08T04:35:51.821Z,96986.12
2019-02-08T04:38:18.547Z,96973.02
2019-02-08T04:40:44.927Z,96982.11
2019-02-08T04:43:10.938Z,96981.66
2019-02-08T04:45:36.849Z,96999.69
2019-02-08T04:48:03.129Z,96981.93
2019-02-08T04:50:29.190Z,96984.22
2019-02-08T04:52:56.370Z,96997.14
2019-02-08T04:55:22.265Z,96995.15
2019-02-08T04:57:48.243Z,97005.30
2019-02-08T05:00:34.366Z,97004.36
2019-02-08T05:03:00.360Z,96990.17
2019-02-08T05:05:26.663Z,97001.08
2019-02-08T05:07:52.885Z,96990.02
2019-02-08T05:10:22.552Z,96999.16
2019-02-08T05:12:48.893Z,96994.52
2019-02-08T05:15:15.068Z,96980.84
2019-02-08T05:17:41.043Z,96992.81
2019-02-08T05:20:27.880Z,96995.54
2019-02-08T05:22:53.952Z,96984.55
2019-02-08T05:25:40.046Z,96973.77
2019-02-08T05:28:05.915Z,96978.52
2019-02-08T05:31:13.472Z,96974.72
2019-02-08T05:33:39.441Z,96975.08
2019-02-08T05:36:05.556Z,96971.42
2019-02-08T05:38:31.576Z,96978.85
2019-02-08T05:40:57.707Z,96982.56
2019-02-08T05:43:23.855Z,96975.34
2019-02-08T05:45:49.857Z,96974.66
2019-02-08T05:48:15.981Z,96986.52
2019-02-08T05:50:42.031Z,96982.36
2019-02-08T05:53:07.994Z,96977.16
2019-02-08T05:55:34.115Z,96975.89
2019-02-08T05:58:00.166Z,96972.97
2019-02-08T06:01:07.736Z,96967.84
2019-02-08T06:03:33.792Z,96970.76
2019-02-08T06:05:59.849Z,96975.52
2019-02-08T06:08:26.038Z,96980.86
2019-02-08T06:10:52.125Z,96978.36
2019-02-08T06:13:18.480Z,96976.73
2019-02-08T06:15:44.491Z,96985.02
2019-02-08T06:18:10.743Z,96987.38
2019-02-08T06:20:36.774Z,96984.09
2019-02-08T06:23:44.308Z,96991.37
2019-02-08T06:26:10.394Z,96975.19
2019-02-08T06:28:36.441Z,96992.95
2019-02-08T06:31:02.706Z,96998.00
2019-02-08T06:33:28.941Z,97001.78
2019-02-08T06:35:55.108Z,96995.61
2019-02-08T06:38:21.238Z,96999.17
2019-02-08T06:40:47.256Z,96994.83
2019-02-08T06:43:13.526Z,97001.95
2019-02-08T06:45:39.668Z,97006.20
2019-02-08T06:48:47.166Z,97002.31
2019-02-08T06:51:13.337Z,97009.47
2019-02-08T06:53:39.361Z,97012.00
2019-02-08T07:01:50.166Z,97016.44
2019-02-08T07:04:35.952Z,97026.56
2019-02-08T07:07:22.047Z,97016.08
2019-02-08T07:10:08.023Z,97025.67
2019-02-08T07:12:54.082Z,97016.23
2019-02-08T07:18:27.538Z,97025.45
2019-02-08T07:21:13.481Z,97033.42
2019-02-08T07:23:59.411Z,97022.03
2019-02-08T07:26:45.421Z,97016.58
2019-02-08T07:32:05.166Z,97025.77
2019-02-08T07:34:51.150Z,97030.03
2019-02-08T07:40:46.239Z,97029.03
2019-02-08T07:49:36.904Z,97037.27
2019-02-08T07:52:44.417Z,97041.98
2019-02-08T07:55:51.906Z,97038.21
2019-02-08T08:01:46.941Z,97038.13
2019-02-08T08:04:32.861Z,97037.94
2019-02-08T08:07:18.754Z,97040.41
2019-02-08T08:10:04.707Z,97035.50
2019-02-08T08:12:50.797Z,97041.83
2019-02-08T08:15:58.340Z,97042.63
2019-02-08T08:19:05.917Z,97044.16
2019-02-08T08:21:51.912Z,97044.05
2019-02-08T08:24:59.533Z,97042.00
2019-02-08T08:28:07.291Z,97053.03
2019-02-08T08:31:14.919Z,97058.98
2019-02-08T08:34:22.499Z,97052.22
2019-02-08T08:37:28.127Z,97045.73
2019-02-08T08:40:33.885Z,97047.61
2019-02-08T08:43:39.641Z,97042.96
2019-02-08T08:46:45.320Z,97042.52
2019-02-08T08:49:50.974Z,97044.41
2019-02-08T08:52:56.652Z,97048.66
2019-02-08T08:56:02.244Z,97050.02
2019-02-08T08:59:09.799Z,97049.77
2019-02-08T09:02:15.674Z,97041.63
2019-02-08T09:05:21.504Z,97052.64
2019-02-08T09:08:29.099Z,97052.12
2019-02-08T09:11:34.705Z,97049.78
2019-02-08T09:14:40.523Z,97046.43
2019-02-08T09:17:48.115Z,97044.15
2019-02-08T09:20:53.756Z,97040.32
2019-02-08T09:24:01.251Z,97036.14
2019-02-08T09:27:06.904Z,97031.21
2019-02-08T09:30:14.409Z,97032.78
2019-02-08T09:33:20.046Z,97040.34
2019-02-08T09:36:25.711Z,97040.34
2019-02-08T09:39:31.459Z,97033.33
2019-02-08T09:42:37.109Z,97029.67
2019-02-08T09:45:43.082Z,97024.16
2019-02-08T09:48:50.115Z,97027.06
2019-02-08T09:51:55.867Z,97031.23
2019-02-08T09:55:03.523Z,97028.34
2019-02-08T09:58:09.268Z,97039.07
2019-02-08T10:01:14.953Z,97030.22
2019-02-08T10:04:20.721Z,97033.63
2019-02-08T10:07:28.379Z,97033.36
2019-02-08T10:10:34.142Z,97029.97
2019-02-08T10:13:39.907Z,97031.52
2019-02-08T10:16:45.595Z,97023.69
2019-02-08T10:19:33.426Z,97022.63
2019-02-08T10:22:39.080Z,97017.12
2019-02-08T10:25:44.730Z,97024.16
2019-02-08T10:28:52.383Z,97019.17
2019-02-08T10:31:58.144Z,97014.71
2019-02-08T10:35:03.795Z,97016.53
2019-02-08T10:38:09.824Z,97014.17
2019-02-08T10:41:17.347Z,97006.31
2019-02-08T10:44:23.101Z,97003.95
2019-02-08T10:47:30.658Z,96997.63
2019-02-08T10:50:38.246Z,96993.17
2019-02-08T10:53:44.005Z,96997.02
2019-02-08T10:56:51.568Z,96988.87
2019-02-08T10:59:57.192Z,96992.20
2019-02-08T11:03:02.957Z,96995.08
2019-02-08T11:06:08.709Z,96987.67
2019-02-08T11:09:14.463Z,96989.75
2019-02-08T11:12:22.093Z,96986.12
2019-02-08T11:15:29.631Z,96985.41
2019-02-08T11:18:35.260Z,96973.55
2019-02-08T11:21:01.548Z,96974.83
2019-02-08T11:23:27.461Z,96970.31
2019-02-08T11:25:53.731Z,96974.50
2019-02-08T11:28:19.863Z,96968.39
2019-02-08T11:30:46.142Z,96971.81
2019-02-08T11:33:12.418Z,96969.38
2019-02-08T11:35:38.368Z,96974.06
2019-02-08T11:38:05.037Z,96967.49
2019-02-08T11:40:31.154Z,96973.44
2019-02-08T11:42:57.231Z,96966.86
2019-02-08T11:45:23.252Z,96967.08
2019-02-08T11:47:49.227Z,96958.19
2019-02-08T11:50:56.856Z,96949.36
2019-02-08T11:53:22.999Z,96946.30
2019-02-08T11:55:49.227Z,96954.19
2019-02-08T11:58:15.249Z,96953.55
2019-02-08T12:03:15.328Z,96944.23
2019-02-08T12:05:41.552Z,96944.78
2019-02-08T12:08:49.222Z,96943.05
2019-02-08T12:11:15.542Z,96940.80
2019-02-08T12:13:41.714Z,96933.89
2019-02-08T12:16:07.949Z,96931.72
2019-02-08T12:18:34.076Z,96931.80
2019-02-08T12:21:00.065Z,96930.82
2019-02-08T12:23:26.068Z,96929.28
2019-02-08T12:25:52.191Z,96915.68
2019-02-08T12:28:18.123Z,96915.68
2019-02-08T12:31:25.663Z,96920.52
2019-02-08T12:33:51.842Z,96919.75
2019-02-08T12:36:17.786Z,96908.38
2019-02-08T12:38:44.035Z,96908.38
2019-02-08T12:41:10.382Z,96910.12
2019-02-08T12:43:36.394Z,96899.62
2019-02-08T12:46:02.668Z,96898.53
2019-02-08T12:48:28.847Z,96893.72
2019-02-08T12:50:54.974Z,96888.92
2019-02-08T12:53:21.147Z,96888.25
2019-02-08T12:55:47.093Z,96884.56
2019-02-08T12:58:13.250Z,96880.20
2019-02-08T13:00:59.257Z,96864.78
2019-02-08T13:03:25.198Z,96864.78
2019-02-08T13:05:51.213Z,96879.03
2019-02-08T13:08:17.293Z,96881.95
2019-02-08T13:10:43.525Z,96880.89
2019-02-08T13:13:09.556Z,96866.60
2019-02-08T13:15:35.570Z,96865.57
2019-02-08T13:18:01.714Z,96858.65
2019-02-08T13:20:27.806Z,96856.38
2019-02-08T13:22:53.887Z,96854.33
2019-02-08T13:25:19.973Z,96851.25
2019-02-08T13:30:37.207Z,96846.52
2019-02-08T13:33:45.126Z,96848.26
2019-02-08T13:36:52.653Z,96842.88
2019-02-08T13:39:18.587Z,96840.23
2019-02-08T13:41:44.488Z,96835.73
2019-02-08T13:44:10.489Z,96842.10
2019-02-08T13:46:58.564Z,96831.59
2019-02-08T13:49:24.491Z,96835.25
2019-02-08T13:51:50.414Z,96837.94
2019-02-08T13:54:16.489Z,96833.36
2019-02-08T13:56:42.930Z,96837.61
2019-02-08T13:59:09.201Z,96832.67
2019-02-08T14:01:35.366Z,96827.63
2019-02-08T14:04:02.102Z,96832.38
2019-02-08T14:06:29.263Z,96821.24
2019-02-08T14:08:55.218Z,96829.59
2019-02-08T14:11:21.278Z,96830.76
2019-02-08T14:16:24.067Z,96817.69
2019-02-08T14:19:09.840Z,96807.52
2019-02-08T14:21:35.875Z,96807.52
2019-02-08T14:24:01.778Z,96805.70
2019-02-08T14:26:28.132Z,96807.19
2019-02-08T14:28:54.196Z,96805.80
2019-02-08T14:31:20.275Z,96804.27
2019-02-08T14:33:46.615Z,96795.12
2019-02-08T14:36:32.390Z,96794.94
2019-02-08T14:41:30.060Z,96786.11
2019-02-08T14:43:55.945Z,96789.55
2019-02-08T14:46:21.857Z,96800.62
2019-02-08T14:48:47.979Z,96794.31
2019-02-08T14:51:14.118Z,96785.30
2019-02-08T14:53:40.200Z,96780.20
2019-02-08T14:58:54.043Z,96768.53
2019-02-08T15:01:20.111Z,96777.45
2019-02-08T15:03:46.238Z,96774.63
2019-02-08T15:06:12.327Z,96770.19
2019-02-08T15:08:38.363Z,96774.70
2019-02-08T15:11:04.519Z,96769.69
2019-02-08T15:13:30.633Z,96764.70
2019-02-08T15:15:56.598Z,96758.27
2019-02-08T15:18:22.942Z,96762.20
2019-02-08T15:20:49.269Z,96754.83
2019-02-08T15:23:15.498Z,96755.00
2019-02-08T15:25:41.827Z,96751.38
2019-02-08T15:28:07.956Z,96752.13
2019-02-08T15:31:15.703Z,96744.89
2019-02-08T15:33:41.930Z,96743.86
2019-02-08T15:36:08.258Z,96736.20
2019-02-08T15:38:34.590Z,96729.13
2019-02-08T15:41:00.775Z,96727.34
2019-02-08T15:43:26.994Z,96718.74
2019-02-08T15:46:34.651Z,96720.95
2019-02-08T15:49:00.674Z,96716.73
2019-02-08T15:51:26.949Z,96721.55
2019-02-08T15:53:53.231Z,96723.91
2019-02-08T15:56:19.548Z,96719.00
2019-02-08T15:58:45.774Z,96715.69
2019-02-08T16:01:12.012Z,96707.31
2019-02-08T16:03:38.129Z,96707.00
2019-02-08T16:06:45.736Z,96698.48
2019-02-08T16:09:53.332Z,96694.12
2019-02-08T16:12:19.345Z,96690.22
2019-02-08T16:14:45.381Z,96682.74
2019-02-08T16:17:11.556Z,96678.87
2019-02-08T16:19:37.782Z,96685.95
2019-02-08T16:24:37.817Z,96681.52
2019-02-08T16:27:25.641Z,96682.08
2019-02-08T16:29:51.919Z,96682.55
2019-02-08T16:32:17.952Z,96678.62
2019-02-08T16:34:44.067Z,96676.61
2019-02-08T16:37:10.032Z,96677.74
2019-02-08T16:39:36.020Z,96667.61
2019-02-08T16:42:01.984Z,96678.34
2019-02-08T16:44:28.017Z,96678.10
2019-02-08T16:46:54.143Z,96678.88
2019-02-08T16:49:20.347Z,96672.90
2019-02-08T16:51:46.384Z,96676.30
2019-02-08T16:54:12.457Z,96673.71
2019-02-08T16:56:38.842Z,96672.13
2019-02-08T16:59:46.392Z,96676.05
2019-02-08T17:02:12.521Z,96684.67
2019-02-08T17:04:38.686Z,96678.41
2019-02-08T17:07:04.770Z,96685.19
2019-02-08T17:09:30.670Z,96682.86
2019-02-08T17:11:56.767Z,96682.84
2019-02-08T17:14:22.642Z,96682.86
2019-02-08T17:16:48.852Z,96681.80
2019-02-08T17:19:14.839Z,96682.33
2019-02-08T17:21:40.837Z,96675.55
2019-02-08T17:24:07.021Z,96673.22
2019-02-08T17:26:33.253Z,96681.03
2019-02-08T17:28:59.336Z,96674.77
2019-02-08T17:31:25.509Z,96669.81
2019-02-08T17:33:51.630Z,96669.04
2019-02-08T17:36:17.650Z,96663.83
2019-02-08T17:38:43.677Z,96665.13
2019-02-08T17:41:09.848Z,96654.97
2019-02-08T17:43:36.038Z,96657.04
2019-02-08T17:46:02.319Z,96650.01
2019-02-08T17:48:28.547Z,96647.41
2019-02-08T17:50:54.826Z,96647.41
2019-02-08T17:53:20.832Z,96637.52
2019-02-08T17:55:48.378Z,96634.66
2019-02-08T17:58:15.096Z,96638.82
2019-02-08T18:01:22.725Z,96640.10
2019-02-08T18:03:48.968Z,96627.07
2019-02-08T18:06:15.054Z,96627.86
2019-02-08T18:08:41.016Z,96624.19
2019-02-08T18:11:07.150Z,96621.06
2019-02-08T18:13:33.483Z,96611.95
2019-02-08T18:15:59.487Z,96613.77
2019-02-08T18:18:25.511Z,96619.50
2019-02-08T18:21:33.066Z,96623.41
2019-02-08T18:23:59.148Z,96617.91
2019-02-08T18:26:25.190Z,96620.78
2019-02-08T18:28:51.383Z,96608.28
2019-02-08T18:31:17.573Z,96606.72
2019-02-08T18:33:43.750Z,96607.78
2019-02-08T18:36:09.923Z,96614.03
2019-02-08T18:41:08.885Z,96597.09
2019-02-08T18:43:34.892Z,96594.20
2019-02-08T18:46:00.873Z,96589.52
2019-02-08T18:48:27.046Z,96587.92
2019-02-08T18:51:34.640Z,96578.00
2019-02-08T18:54:00.878Z,96576.41
2019-02-08T18:56:26.890Z,96579.27
2019-02-08T18:58:52.875Z,96574.27
2019-02-08T19:01:19.041Z,96577.84
2019-02-08T19:03:45.179Z,96581.70
2019-02-08T19:06:11.450Z,96570.00
2019-02-08T19:08:37.415Z,96570.27
2019-02-08T19:11:03.606Z,96567.45
2019-02-08T19:13:29.775Z,96570.05
2019-02-08T19:15:56.060Z,96569.02
2019-02-08T19:18:22.173Z,96569.27
2019-02-08T19:20:48.208Z,96568.50
2019-02-08T19:23:14.387Z,96569.53
2019-02-08T19:26:02.222Z,96564.55
2019-02-08T19:28:28.449Z,96560.12
2019-02-08T19:31:36.098Z,96561.41
2019-02-08T19:34:02.119Z,96554.59
2019-02-08T19:36:28.240Z,96552.72
2019-02-08T19:38:54.468Z,96547.19
2019-02-08T19:41:20.601Z,96549.52
2019-02-08T19:43:46.666Z,96546.39
2019-02-08T19:46:12.951Z,96543.22
2019-02-08T19:48:39.178Z,96539.58
2019-02-08T19:51:05.261Z,96536.25
2019-02-08T19:53:31.432Z,96532.89
2019-02-08T19:55:57.653Z,96533.16
2019-02-08T19:58:23.941Z,96541.27
2019-02-08T20:00:50.017Z,96537.64
2019-02-08T20:03:16.367Z,96539.46
2019-02-08T20:05:42.440Z,96547.25
2019-02-08T20:08:50.033Z,96543.63
2019-02-08T20:11:16.188Z,96546.19
2019-02-08T20:13:42.423Z,96541.98
2019-02-08T20:16:08.688Z,96541.27
2019-02-08T20:18:34.771Z,96535.81
2019-02-08T20:21:00.922Z,96541.00
2019-02-08T20:23:27.171Z,96539.48
2019-02-08T20:25:53.194Z,96533.02
2019-02-08T20:28:19.213Z,96532.78
2019-02-08T20:30:45.492Z,96528.92
2019-02-08T20:33:11.618Z,96525.55
2019-02-08T20:35:37.741Z,96520.35
2019-02-08T20:38:45.458Z,96525.04
2019-02-08T20:41:11.633Z,96513.64
2019-02-08T20:43:37.805Z,96516.25
2019-02-08T20:46:03.875Z,96506.92
2019-02-08T20:48:51.637Z,96504.81
2019-02-08T20:51:17.703Z,96495.45
2019-02-08T20:53:43.877Z,96494.97
2019-02-08T20:56:10.024Z,96486.87
2019-02-08T20:59:17.679Z,96487.66
2019-02-08T21:01:43.813Z,96493.14
2019-02-08T21:04:09.923Z,96490.31
2019-02-08T21:06:36.017Z,96493.17
2019-02-08T21:09:43.609Z,96485.13
2019-02-08T21:12:09.757Z,96494.23
2019-02-08T21:14:35.887Z,96490.58
2019-02-08T21:17:02.126Z,96492.89
2019-02-08T21:19:28.070Z,96476.50
2019-02-08T21:21:53.970Z,96475.47
2019-02-08T21:24:19.960Z,96468.94
2019-02-08T21:26:45.962Z,96466.08
2019-02-08T21:29:12.106Z,96458.75
2019-02-08T21:31:38.185Z,96460.80
2019-02-08T21:34:04.309Z,96455.03
2019-02-08T21:36:30.492Z,96452.11
2019-02-08T21:38:58.863Z,96454.66
2019-02-08T21:41:25.144Z,96444.84
2019-02-08T21:43:51.053Z,96446.92
2019-02-08T21:46:16.931Z,96443.55
2019-02-08T21:48:42.851Z,96431.87
2019-02-08T21:54:44.321Z,96423.03
2019-02-08T21:57:10.404Z,96409.52
2019-02-08T21:59:36.574Z,96409.52
2019-02-08T22:02:02.904Z,96402.47
2019-02-08T22:04:29.132Z,96392.89
2019-02-08T22:06:55.418Z,96400.94
2019-02-08T22:09:21.592Z,96398.34
2019-02-08T22:11:47.820Z,96394.71
2019-02-08T22:14:13.903Z,96382.50
2019-02-08T22:16:39.887Z,96371.86
2019-02-08T22:19:05.989Z,96363.58
2019-02-08T22:21:32.121Z,96356.56
2019-02-08T22:23:58.368Z,96358.39
2019-02-08T22:26:24.473Z,96365.45
2019-02-08T22:28:50.547Z,96348.02
2019-02-08T22:31:36.333Z,96353.97
2019-02-08T22:34:02.654Z,96351.11
2019-02-08T22:36:28.754Z,96349.58
2019-02-08T22:38:54.996Z,96342.05
2019-02-08T22:41:21.099Z,96338.12
2019-02-08T22:43:47.164Z,96347.77
2019-02-08T22:46:13.289Z,96343.10
2019-02-08T22:48:39.547Z,96333.21
2019-02-08T22:51:05.745Z,96332.92
2019-02-08T22:53:31.928Z,96329.86
2019-02-08T22:55:58.140Z,96336.07
2019-02-08T22:58:24.326Z,96333.20
2019-02-08T23:01:31.926Z,96329.84
2019-02-08T23:03:58.149Z,96323.58
2019-02-08T23:06:24.505Z,96311.63
2019-02-08T23:08:50.837Z,96311.89
2019-02-08T23:11:17.018Z,96308.20
2019-02-08T23:13:43.244Z,96308.45
2019-02-08T23:16:09.496Z,96301.41
2019-02-08T23:18:35.538Z,96292.33
2019-02-08T23:21:01.790Z,96284.05
2019-02-08T23:23:27.850Z,96288.46
2019-02-08T23:25:53.896Z,96283.01
2019-02-08T23:28:20.176Z,96274.96
2019-02-08T23:30:46.457Z,96273.40
2019-02-08T23:33:12.547Z,96269.28
2019-02-08T23:35:42.928Z,96268.47
2019-02-08T23:38:06.872Z,96271.06
2019-02-08T23:40:32.853Z,96271.33
2019-02-08T23:42:59.221Z,96276.00
2019-02-08T23:45:25.474Z,96269.70
2019-02-08T23:47:51.640Z,96273.86
2019-02-08T23:50:59.290Z,96278.00
2019-02-08T23:53:25.236Z,96286.05
2019-02-08T23:55:51.180Z,96289.17
2019-02-08T23:58:17.094Z,96292.03
